createdAt,value
2024-04-11T00:00:25.188Z,16.67
2024-04-11T00:02:53.378Z,16.37
2024-04-11T00:05:21.542Z,16.55
2024-04-11T00:07:48.383Z,16.91
2024-04-11T00:10:15.240Z,16.38
2024-04-11T00:12:42.097Z,16.64
2024-04-11T00:15:09.349Z,16.63
2024-04-11T00:17:36.299Z,16.53
2024-04-11T00:20:05.079Z,16.25
2024-04-11T00:22:32.246Z,16.32
2024-04-11T00:24:59.165Z,16.17
2024-04-11T00:27:26.237Z,16.13
2024-04-11T00:29:53.139Z,15.96
2024-04-11T00:32:20.076Z,16.06
2024-04-11T00:34:47.050Z,15.83
2024-04-11T00:37:14.203Z,16.14
2024-04-11T00:39:40.886Z,15.82
2024-04-11T00:42:08.667Z,16.17
2024-04-11T00:44:38.686Z,16.12
2024-04-11T00:47:10.708Z,16.34
2024-04-11T00:49:39.536Z,15.97
2024-04-11T00:52:08.424Z,16.07
2024-04-11T00:54:36.972Z,15.99
2024-04-11T00:57:08.908Z,15.79
2024-04-11T00:59:41.939Z,15.81
2024-04-11T01:02:13.418Z,16.15
2024-04-11T01:04:40.693Z,16.06
2024-04-11T01:07:09.624Z,16.40
2024-04-11T01:09:46.042Z,16.54
2024-04-11T01:12:14.870Z,16.86
2024-04-11T01:14:45.461Z,16.54
2024-04-11T01:17:17.367Z,16.30
2024-04-11T01:19:51.225Z,16.25
2024-04-11T01:22:19.982Z,16.81
2024-04-11T01:24:48.164Z,16.85
2024-04-11T01:27:18.416Z,16.43
2024-04-11T01:29:45.433Z,16.55
2024-04-11T01:32:12.371Z,16.41
2024-04-11T01:34:40.068Z,16.17
2024-04-11T01:37:07.183Z,16.33
2024-04-11T01:39:33.964Z,16.18
2024-04-11T01:42:00.989Z,16.08
2024-04-11T01:44:29.840Z,15.83
2024-04-11T01:46:57.171Z,15.76
2024-04-11T01:49:23.943Z,15.62
2024-04-11T01:51:50.792Z,15.93
2024-04-11T01:54:17.686Z,15.85
2024-04-11T01:56:44.427Z,15.93
2024-04-11T01:59:11.196Z,15.97
2024-04-11T02:01:39.091Z,15.74
2024-04-11T02:04:07.447Z,15.95
2024-04-11T02:06:38.414Z,16.57
2024-04-11T02:09:16.948Z,16.55
2024-04-11T02:11:48.609Z,16.16
2024-04-11T02:14:15.806Z,16.62
2024-04-11T02:16:42.568Z,16.70
2024-04-11T02:19:09.489Z,16.64
2024-04-11T02:21:39.413Z,17.03
2024-04-11T02:24:08.067Z,17.00
2024-04-11T02:26:36.109Z,16.67
2024-04-11T02:29:03.851Z,16.95
2024-04-11T02:31:30.732Z,17.22
2024-04-11T02:34:00.768Z,16.98
2024-04-11T02:36:34.138Z,16.79
2024-04-11T02:39:01.663Z,16.82
2024-04-11T02:41:29.325Z,17.13
2024-04-11T02:43:56.642Z,16.57
2024-04-11T02:46:26.393Z,16.84
2024-04-11T02:48:54.853Z,16.64
2024-04-11T02:51:24.290Z,16.83
2024-04-11T02:53:51.361Z,17.07
2024-04-11T02:56:18.353Z,16.92
2024-04-11T02:58:45.137Z,16.81
2024-04-11T03:01:15.449Z,16.94
2024-04-11T03:03:42.787Z,17.22
2024-04-11T03:06:11.379Z,17.42
2024-04-11T03:08:38.258Z,17.45
2024-04-11T03:11:05.052Z,17.33
2024-04-11T03:13:31.791Z,17.54
2024-04-11T03:15:59.393Z,17.40
2024-04-11T03:18:26.347Z,17.72
2024-04-11T03:20:57.857Z,17.83
2024-04-11T03:23:25.913Z,17.38
2024-04-11T03:25:53.095Z,17.84
2024-04-11T03:28:20.999Z,17.60
2024-04-11T03:30:58.866Z,16.86
2024-04-11T03:33:27.528Z,16.67
2024-04-11T03:35:59.452Z,16.88
2024-04-11T03:38:26.993Z,16.83
2024-04-11T03:41:09.148Z,16.02
2024-04-11T03:43:36.202Z,16.61
2024-04-11T03:46:22.719Z,16.89
2024-04-11T03:48:57.506Z,17.06
2024-04-11T03:51:31.023Z,16.65
2024-04-11T03:54:00.136Z,16.93
2024-04-11T03:56:29.238Z,16.98
2024-04-11T03:59:00.056Z,17.18
2024-04-11T04:01:28.742Z,17.40
2024-04-11T04:04:06.136Z,17.13
2024-04-11T04:06:35.424Z,16.54
2024-04-11T04:09:09.094Z,16.22
2024-04-11T04:11:39.504Z,16.94
2024-04-11T04:14:15.025Z,16.56
2024-04-11T04:16:43.599Z,16.78
2024-04-11T04:19:11.013Z,16.93
2024-04-11T04:21:37.825Z,16.95
2024-04-11T04:24:07.834Z,16.88
2024-04-11T04:26:35.531Z,17.04
2024-04-11T04:29:02.324Z,17.04
2024-04-11T04:31:32.150Z,17.19
2024-04-11T04:34:01.463Z,16.99
2024-04-11T04:36:34.385Z,17.51
2024-04-11T04:39:06.052Z,17.32
2024-04-11T04:41:33.932Z,16.44
2024-04-11T04:44:03.554Z,16.82
2024-04-11T04:46:31.981Z,16.61
2024-04-11T04:49:01.683Z,16.57
2024-04-11T04:51:30.150Z,16.57
2024-04-11T04:53:58.391Z,16.79
2024-04-11T04:56:30.061Z,16.49
2024-04-11T04:58:57.468Z,16.71
2024-04-11T05:01:25.306Z,16.84
2024-04-11T05:03:52.765Z,16.36
2024-04-11T05:06:19.994Z,16.66
2024-04-11T05:08:54.742Z,16.21
2024-04-11T05:11:23.635Z,16.08
2024-04-11T05:13:51.846Z,16.19
2024-04-11T05:16:22.533Z,16.43
2024-04-11T05:18:51.629Z,16.25
2024-04-11T05:21:25.736Z,16.78
2024-04-11T05:23:55.432Z,16.47
2024-04-11T05:26:26.398Z,17.10
2024-04-11T05:28:55.399Z,17.52
2024-04-11T05:31:29.136Z,17.11
2024-04-11T05:34:01.244Z,16.71
2024-04-11T05:36:30.396Z,16.73
2024-04-11T05:38:58.671Z,16.87
2024-04-11T05:41:26.965Z,16.75
2024-04-11T05:43:55.938Z,16.63
2024-04-11T05:46:23.889Z,16.61
2024-04-11T05:48:52.139Z,16.94
2024-04-11T05:51:20.229Z,16.92
2024-04-11T05:53:47.415Z,17.09
2024-04-11T05:56:16.906Z,17.35
2024-04-11T05:58:44.570Z,16.81
2024-04-11T06:01:17.324Z,17.18
2024-04-11T06:03:51.710Z,17.06
2024-04-11T06:06:21.257Z,17.19
2024-04-11T06:08:49.224Z,17.69
2024-04-11T06:11:19.487Z,17.50
2024-04-11T06:13:48.486Z,17.45
2024-04-11T06:16:16.377Z,17.30
2024-04-11T06:18:45.357Z,17.45
2024-04-11T06:21:19.911Z,16.87
2024-04-11T06:23:46.983Z,17.41
2024-04-11T06:26:15.918Z,17.57
2024-04-11T06:28:46.523Z,17.42
2024-04-11T06:31:16.089Z,17.28
2024-04-11T06:33:43.293Z,17.52
2024-04-11T06:36:12.371Z,17.63
2024-04-11T06:38:39.697Z,17.56
2024-04-11T06:41:09.787Z,18.10
2024-04-11T06:43:39.538Z,18.19
2024-04-11T06:46:08.232Z,17.72
2024-04-11T06:48:36.742Z,17.81
2024-04-11T06:51:08.637Z,17.37
2024-04-11T06:53:35.766Z,17.76
2024-04-11T06:56:09.020Z,18.08
2024-04-11T06:58:37.795Z,18.42
2024-04-11T07:01:05.916Z,18.71
2024-04-11T07:03:33.088Z,18.44
2024-04-11T07:06:11.599Z,18.16
2024-04-11T07:08:44.416Z,18.53
2024-04-11T07:11:20.610Z,18.52
2024-04-11T07:13:56.026Z,18.52
2024-04-11T07:16:27.641Z,18.46
2024-04-11T07:18:57.390Z,18.15
2024-04-11T07:21:29.411Z,18.47
2024-04-11T07:23:59.457Z,18.29
2024-04-11T07:26:31.646Z,18.23
2024-04-11T07:29:05.102Z,18.14
2024-04-11T07:31:34.518Z,17.99
2024-04-11T07:34:04.741Z,18.08
2024-04-11T07:36:34.111Z,18.42
2024-04-11T07:39:02.401Z,18.21
2024-04-11T07:41:34.280Z,18.70
2024-04-11T07:44:01.831Z,18.73
2024-04-11T07:46:42.885Z,19.28
2024-04-11T07:49:14.869Z,19.23
2024-04-11T07:51:43.189Z,19.03
2024-04-11T07:54:20.573Z,19.22
2024-04-11T07:56:52.539Z,19.46
2024-04-11T07:59:19.226Z,19.41
2024-04-11T08:01:46.011Z,19.47
2024-04-11T08:04:12.828Z,19.42
2024-04-11T08:06:40.483Z,18.99
2024-04-11T08:09:08.207Z,19.03
2024-04-11T08:11:38.202Z,18.76
2024-04-11T08:14:07.569Z,18.75
2024-04-11T08:16:34.889Z,18.52
2024-04-11T08:19:03.938Z,18.45
2024-04-11T08:21:34.615Z,18.51
2024-04-11T08:24:01.974Z,18.60
2024-04-11T08:26:30.549Z,18.82
2024-04-11T08:28:57.393Z,18.82
2024-04-11T08:31:31.622Z,18.88
2024-04-11T08:33:59.634Z,18.41
2024-04-11T08:36:27.794Z,18.44
2024-04-11T08:38:56.670Z,18.51
2024-04-11T08:41:23.480Z,18.71
2024-04-11T08:43:51.947Z,18.69
2024-04-11T08:46:18.805Z,18.28
2024-04-11T08:48:45.888Z,18.43
2024-04-11T08:51:21.133Z,18.71
2024-04-11T08:54:00.201Z,18.47
2024-04-11T08:56:30.748Z,18.86
2024-04-11T08:58:57.582Z,18.60
2024-04-11T09:01:25.028Z,18.63
2024-04-11T09:03:53.981Z,18.89
2024-04-11T09:06:25.734Z,18.80
2024-04-11T09:08:56.942Z,18.81
2024-04-11T09:11:28.153Z,19.31
2024-04-11T09:13:59.577Z,19.24
2024-04-11T09:16:29.809Z,19.35
2024-04-11T09:19:12.724Z,19.20
2024-04-11T09:21:47.146Z,19.58
2024-04-11T09:24:20.317Z,19.11
2024-04-11T09:26:48.538Z,18.82
2024-04-11T09:29:21.259Z,18.89
2024-04-11T09:31:50.639Z,19.13
2024-04-11T09:34:22.117Z,19.35
2024-04-11T09:36:51.410Z,19.57
2024-04-11T09:39:44.809Z,19.08
2024-04-11T09:42:21.745Z,18.86
2024-04-11T09:44:54.652Z,19.04
2024-04-11T09:47:36.174Z,19.03
2024-04-11T09:50:07.457Z,19.07
2024-04-11T09:52:42.781Z,19.28
2024-04-11T09:55:10.443Z,19.38
2024-04-11T09:57:39.867Z,19.37
2024-04-11T10:00:23.916Z,18.89
2024-04-11T10:02:56.504Z,18.78
2024-04-11T10:05:26.814Z,18.80
2024-04-11T10:07:59.304Z,18.72
2024-04-11T10:10:29.113Z,19.10
2024-04-11T10:13:04.802Z,18.81
2024-04-11T10:15:35.437Z,18.88
2024-04-11T10:18:10.994Z,18.81
2024-04-11T10:21:00.609Z,18.50
2024-04-11T10:23:30.359Z,18.96
2024-04-11T10:25:57.582Z,19.19
2024-04-11T10:28:39.809Z,18.90
2024-04-11T10:31:12.748Z,19.42
2024-04-11T10:33:54.806Z,19.18
2024-04-11T10:36:22.908Z,19.24
2024-04-11T10:38:59.253Z,19.37
2024-04-11T10:41:27.796Z,19.92
2024-04-11T10:43:56.952Z,19.55
2024-04-11T10:46:25.342Z,19.26
2024-04-11T10:48:56.364Z,19.52
2024-04-11T10:51:29.145Z,19.45
2024-04-11T10:54:10.763Z,19.59
2024-04-11T10:56:47.899Z,19.54
2024-04-11T10:59:24.223Z,19.84
2024-04-11T11:02:06.208Z,19.58
2024-04-11T11:04:35.095Z,19.56
2024-04-11T11:07:12.021Z,19.87
2024-04-11T11:09:46.798Z,20.57
2024-04-11T11:12:17.778Z,20.50
2024-04-11T11:14:44.933Z,21.00
2024-04-11T11:17:19.358Z,20.60
2024-04-11T11:19:51.556Z,20.87
2024-04-11T11:22:31.322Z,20.78
2024-04-11T11:25:02.238Z,20.72
2024-04-11T11:27:34.841Z,20.91
2024-04-11T11:30:07.284Z,21.24
2024-04-11T11:32:37.522Z,21.16
2024-04-11T11:35:10.596Z,21.45
2024-04-11T11:37:40.110Z,20.54
2024-04-11T11:40:27.339Z,21.01
2024-04-11T11:42:54.244Z,21.15
2024-04-11T11:45:30.204Z,20.84
2024-04-11T11:48:14.238Z,20.99
2024-04-11T11:50:41.537Z,21.33
2024-04-11T11:53:27.017Z,21.28
2024-04-11T11:56:04.699Z,21.26
2024-04-11T11:58:37.658Z,21.44
2024-04-11T12:01:20.976Z,21.22
2024-04-11T12:03:49.186Z,21.75
2024-04-11T12:06:16.105Z,22.48
2024-04-11T12:08:44.899Z,22.54
2024-04-11T12:11:11.917Z,23.12
2024-04-11T12:13:46.493Z,22.55
2024-04-11T12:16:19.440Z,22.40
2024-04-11T12:18:49.794Z,22.69
2024-04-11T12:21:27.605Z,22.61
2024-04-11T12:23:56.386Z,22.80
2024-04-11T12:26:23.451Z,22.18
2024-04-11T12:28:52.485Z,22.63
2024-04-11T12:31:23.353Z,22.78
2024-04-11T12:39:14.085Z,22.85
2024-04-11T12:41:42.126Z,22.91
2024-04-11T12:44:12.814Z,22.61
2024-04-11T12:46:50.422Z,22.38
2024-04-11T12:49:21.596Z,22.26
2024-04-11T12:51:48.322Z,22.16
2024-04-11T12:54:17.251Z,22.37
2024-04-11T12:56:46.577Z,22.57
2024-04-11T12:59:29.412Z,22.40
2024-04-11T13:02:00.444Z,22.03
2024-04-11T13:04:33.731Z,21.83
2024-04-11T13:07:11.717Z,21.82
2024-04-11T13:09:56.556Z,22.13
2024-04-11T13:12:28.147Z,22.48
2024-04-11T13:15:11.348Z,22.39
2024-04-11T13:17:44.686Z,22.00
2024-04-11T13:20:15.068Z,21.97
2024-04-11T13:22:46.025Z,22.05
2024-04-11T13:25:22.678Z,22.04
2024-04-11T13:27:54.952Z,22.67
2024-04-11T13:30:22.455Z,22.99
2024-04-11T13:32:57.562Z,22.94
2024-04-11T13:35:38.324Z,22.74
2024-04-11T13:38:13.988Z,22.68
2024-04-11T13:41:12.814Z,22.46
2024-04-11T13:43:44.979Z,22.96
2024-04-11T13:46:13.033Z,22.71
2024-04-11T13:48:51.868Z,22.13
2024-04-11T13:51:31.807Z,22.88
2024-04-11T13:54:04.540Z,22.84
2024-04-11T13:56:31.924Z,22.27
2024-04-11T13:59:09.311Z,22.46
2024-04-11T14:01:51.918Z,22.43
2024-04-11T14:04:19.650Z,22.72
2024-04-11T14:06:52.342Z,23.11
2024-04-11T14:09:20.740Z,22.52
2024-04-11T14:11:48.954Z,22.58
2024-04-11T14:14:22.298Z,22.24
2024-04-11T14:16:53.718Z,22.64
2024-04-11T14:19:36.989Z,22.60
2024-04-11T14:22:23.276Z,22.56
2024-04-11T14:25:09.193Z,22.24
2024-04-11T14:27:39.694Z,22.46
2024-04-11T14:30:07.313Z,22.49
2024-04-11T14:32:52.711Z,22.69
2024-04-11T14:35:26.957Z,22.27
2024-04-11T14:37:57.475Z,22.24
2024-04-11T14:40:24.404Z,22.17
2024-04-11T14:42:54.525Z,22.14
2024-04-11T14:45:23.973Z,22.71
2024-04-11T14:47:52.626Z,22.75
2024-04-11T14:50:20.538Z,22.63
2024-04-11T14:52:53.167Z,22.17
2024-04-11T14:55:22.129Z,22.72
2024-04-11T14:57:49.612Z,22.84
2024-04-11T15:00:35.229Z,22.54
2024-04-11T15:03:02.506Z,22.38
2024-04-11T15:05:35.381Z,21.99
2024-04-11T15:08:05.052Z,21.65
2024-04-11T15:10:43.283Z,21.43
2024-04-11T15:13:10.950Z,21.78
2024-04-11T15:15:57.651Z,22.00
2024-04-11T15:18:29.150Z,21.67
2024-04-11T15:21:12.269Z,22.38
2024-04-11T15:23:44.073Z,22.45
2024-04-11T15:26:15.070Z,22.58
2024-04-11T15:28:48.876Z,22.85
2024-04-11T15:31:31.245Z,22.34
2024-04-11T15:33:59.178Z,22.70
2024-04-11T15:36:45.088Z,22.61
2024-04-11T15:39:17.560Z,22.78
2024-04-11T15:41:52.203Z,23.17
2024-04-11T15:44:19.541Z,22.81
2024-04-11T15:46:50.840Z,22.13
2024-04-11T15:49:19.909Z,21.88
2024-04-11T15:51:52.444Z,21.87
2024-04-11T15:54:31.618Z,21.68
2024-04-11T15:56:58.447Z,22.00
2024-04-11T15:59:28.531Z,21.86
2024-04-11T16:01:59.034Z,22.39
2024-04-11T16:04:25.952Z,22.11
2024-04-11T16:06:59.816Z,21.67
2024-04-11T16:09:38.446Z,21.64
2024-04-11T16:12:11.180Z,21.88
2024-04-11T16:14:44.429Z,21.98
2024-04-11T16:17:14.667Z,21.96
2024-04-11T16:19:42.473Z,22.03
2024-04-11T16:22:12.617Z,22.25
2024-04-11T16:24:53.711Z,22.43
2024-04-11T16:27:35.428Z,22.81
2024-04-11T16:30:12.329Z,22.57
2024-04-11T16:32:42.647Z,22.01
2024-04-11T16:35:09.943Z,21.92
2024-04-11T16:37:37.047Z,22.25
2024-04-11T16:40:05.228Z,22.31
2024-04-11T16:42:35.632Z,22.33
2024-04-11T16:45:06.607Z,22.40
2024-04-11T16:47:37.604Z,22.41
2024-04-11T16:50:05.492Z,22.31
2024-04-11T16:52:33.206Z,22.84
2024-04-11T16:55:24.423Z,22.27
2024-04-11T16:57:52.731Z,22.37
2024-04-11T17:00:28.626Z,22.47
2024-04-11T17:03:01.341Z,22.14
2024-04-11T17:05:29.738Z,22.37
2024-04-11T17:07:57.403Z,22.19
2024-04-11T17:10:34.849Z,22.56
2024-04-11T17:13:02.377Z,23.04
2024-04-11T17:15:31.634Z,22.59
2024-04-11T17:18:07.304Z,22.22
2024-04-11T17:20:35.185Z,21.71
2024-04-11T17:23:01.864Z,21.71
2024-04-11T17:25:40.400Z,21.72
2024-04-11T17:28:20.975Z,21.59
2024-04-11T17:30:57.290Z,21.51
2024-04-11T17:33:36.920Z,21.92
2024-04-11T17:36:25.110Z,22.11
2024-04-11T17:39:23.370Z,22.20
2024-04-11T17:41:59.886Z,22.32
2024-04-11T17:44:45.994Z,21.86
2024-04-11T17:47:21.993Z,21.76
2024-04-11T17:50:00.040Z,22.15
2024-04-11T17:52:46.069Z,21.83
2024-04-11T17:55:25.840Z,22.23
2024-04-11T17:57:53.157Z,22.24
2024-04-11T18:00:27.200Z,21.73
2024-04-11T18:02:55.051Z,22.40
2024-04-11T18:05:22.836Z,22.44
2024-04-11T18:07:53.463Z,22.09
2024-04-11T18:10:26.250Z,22.17
2024-04-11T18:12:54.492Z,22.06
2024-04-11T18:15:21.322Z,21.25
2024-04-11T18:17:55.421Z,21.50
2024-04-11T18:20:28.453Z,21.74
2024-04-11T18:22:55.243Z,21.89
2024-04-11T18:25:30.367Z,21.83
2024-04-11T18:28:12.787Z,21.46
2024-04-11T18:30:55.833Z,21.57
2024-04-11T18:33:24.421Z,21.35
2024-04-11T18:35:55.881Z,21.27
2024-04-11T18:38:28.762Z,21.65
2024-04-11T18:40:55.971Z,21.50
2024-04-11T18:43:23.940Z,21.83
2024-04-11T18:45:55.938Z,21.89
2024-04-11T18:48:39.222Z,21.92
2024-04-11T18:51:07.047Z,21.64
2024-04-11T18:53:36.543Z,21.87
2024-04-11T18:56:10.496Z,21.93
2024-04-11T18:58:40.726Z,22.17
2024-04-11T19:01:16.564Z,21.91
2024-04-11T19:03:43.647Z,21.68
2024-04-11T19:06:17.886Z,22.16
2024-04-11T19:08:49.437Z,21.72
2024-04-11T19:11:21.668Z,21.88
2024-04-11T19:13:56.202Z,22.18
2024-04-11T19:16:25.800Z,22.02
2024-04-11T19:18:57.907Z,22.41
2024-04-11T19:21:25.152Z,22.62
2024-04-11T19:24:07.742Z,22.69
2024-04-11T19:26:39.500Z,22.69
2024-04-11T19:29:08.960Z,22.30
2024-04-11T19:31:50.195Z,22.52
2024-04-11T19:34:21.280Z,22.75
2024-04-11T19:36:49.548Z,22.43
2024-04-11T19:39:20.610Z,22.65
2024-04-11T19:41:50.648Z,22.25
2024-04-11T19:44:19.103Z,22.19
2024-04-11T19:46:45.892Z,22.27
2024-04-11T19:49:25.496Z,22.29
2024-04-11T19:51:58.855Z,22.30
2024-04-11T19:54:26.656Z,22.23
2024-04-11T19:57:03.527Z,21.93
2024-04-11T19:59:33.589Z,22.12
2024-04-11T20:02:09.580Z,22.28
2024-04-11T20:04:43.078Z,22.50
2024-04-11T20:07:10.722Z,22.54
2024-04-11T20:09:39.461Z,22.37
2024-04-11T20:12:09.059Z,22.24
2024-04-11T20:14:39.853Z,22.40
2024-04-11T20:17:27.736Z,22.01
2024-04-11T20:20:00.595Z,22.27
2024-04-11T20:22:33.491Z,22.49
2024-04-11T20:25:00.406Z,22.57
2024-04-11T20:27:35.741Z,22.15
2024-04-11T20:30:15.625Z,22.27
2024-04-11T20:32:45.579Z,22.41
2024-04-11T20:35:42.440Z,22.68
2024-04-11T20:38:22.375Z,22.66
2024-04-11T20:41:04.658Z,22.49
2024-04-11T20:43:58.665Z,22.28
2024-04-11T20:46:31.232Z,21.97
2024-04-11T20:49:07.302Z,21.70
2024-04-11T20:51:52.855Z,21.39
2024-04-11T20:54:38.664Z,21.48
2024-04-11T20:57:24.070Z,21.60
2024-04-11T21:00:09.522Z,22.09
2024-04-11T21:02:55.076Z,21.87
2024-04-11T21:05:41.990Z,21.79
2024-04-11T21:08:28.066Z,21.83
2024-04-11T21:11:15.070Z,21.79
2024-04-11T21:14:00.243Z,21.23
2024-04-11T21:16:46.106Z,21.23
2024-04-11T21:19:31.599Z,21.14
2024-04-11T21:22:17.055Z,21.43
2024-04-11T21:25:07.098Z,21.33
2024-04-11T21:27:52.084Z,21.76
2024-04-11T21:30:37.556Z,21.30
2024-04-11T21:33:23.705Z,21.81
2024-04-11T21:35:54.666Z,21.48
2024-04-11T21:38:24.409Z,21.60
2024-04-11T21:40:51.220Z,21.60
2024-04-11T21:43:21.893Z,21.85
2024-04-11T21:45:58.951Z,22.03
2024-04-11T21:48:30.390Z,21.81
2024-04-11T21:50:57.194Z,21.47
2024-04-11T21:53:23.920Z,21.56
2024-04-11T21:55:50.962Z,21.71
2024-04-11T21:58:20.166Z,21.59
2024-04-11T22:01:02.695Z,21.98
2024-04-11T22:03:30.687Z,21.37
2024-04-11T22:05:57.715Z,21.18
2024-04-11T22:08:26.297Z,21.79
2024-04-11T22:10:54.390Z,21.81
2024-04-11T22:13:23.230Z,21.86
2024-04-11T22:15:54.106Z,21.80
2024-04-11T22:18:31.865Z,21.91
2024-04-11T22:21:16.061Z,22.24
2024-04-11T22:23:46.555Z,22.35
2024-04-11T22:26:19.269Z,22.14
2024-04-11T22:28:49.642Z,22.21
2024-04-11T22:31:16.530Z,22.06
2024-04-11T22:33:44.962Z,22.16
2024-04-11T22:36:29.146Z,22.27
2024-04-11T22:39:01.883Z,22.41
2024-04-11T22:41:31.792Z,22.37
2024-04-11T22:43:59.763Z,22.54
2024-04-11T22:46:38.333Z,22.45
2024-04-11T22:49:22.611Z,22.21
2024-04-11T22:51:55.765Z,22.22
2024-04-11T22:54:23.809Z,22.34
2024-04-11T22:56:52.061Z,22.17
2024-04-11T22:59:35.875Z,22.37
2024-04-11T23:02:14.777Z,22.39
2024-04-11T23:05:07.330Z,22.10
2024-04-11T23:07:34.763Z,21.99
2024-04-11T23:10:11.106Z,21.95
2024-04-11T23:12:38.569Z,21.75
2024-04-11T23:15:12.575Z,21.90
2024-04-11T23:17:56.319Z,21.45
2024-04-11T23:20:30.082Z,21.09
2024-04-11T23:23:17.977Z,20.92
2024-04-11T23:25:51.411Z,21.09
2024-04-11T23:28:27.923Z,20.64
2024-04-11T23:30:57.585Z,21.10
2024-04-11T23:33:30.315Z,20.94
2024-04-11T23:36:06.117Z,21.24
2024-04-11T23:38:36.089Z,21.32
2024-04-11T23:41:07.785Z,21.03
2024-04-11T23:43:52.613Z,20.94
2024-04-11T23:46:32.010Z,20.69
2024-04-11T23:49:07.564Z,20.91
2024-04-11T23:51:47.390Z,20.85
2024-04-11T23:54:20.018Z,21.04
2024-04-11T23:56:48.994Z,21.20
2024-04-11T23:59:17.035Z,20.92
